PWSweather.com
Personal Weather Stations
Station Observations
KC4KQE
Superstition Mountains, Apache Junction, AZ 85119

Superstition MountainsApache Junction, AZ 85119

Lat: 33.41578, Lon: -111.49328

Elevation: 1850

Station Type: Davis Vantage Pro2 Plus

http://kc4kqe.org/

High Low Average
Temperature 109.4°F43.0°C 87.9°F31.1°C 98.6°F37.0°C
Dew Point 67.7°F19.8°C 47.8°F8.8°C 51.4°F10.8°C
Winds 16.0 mph 25.7 kmh Calm Calm 4.0 mph SSE6.4 kmh SSE
Wind Gusts 21.0 mph33.8 kmh -- 9.0 mph14.5 kmh
Humidity 44% 15% 22%
Pressure 29.94 in1013.9 mb 29.79 in1008.8 mb -
Precipitation 0.06 in1.5 mm - -
Hour Temp Dew Point Humidity Winds Wind Gusts Pressure Precip Precip Rate Daily Precip Total
12:00 AM 94.5°F34.7°C 49.7°F9.8°C 22% 6.0 mph E9.7 kmh E 10.0 mph16.1 kmh 29.81 in1009.5 mb 0.00 in0.0 mm 0.00 in0.0 mm 0.00 in0.0 mm
12:05 AM 94.9°F34.9°C 50.0°F10.0°C 22% Calm Calm 8.0 mph12.9 kmh 29.81 in1009.5 mb 0.00 in0.0 mm 0.00 in0.0 mm 0.00 in0.0 mm
12:10 AM 95.0°F35.0°C 50.1°F10.1°C 22% Calm Calm 6.0 mph9.7 kmh 29.81 in1009.5 mb 0.00 in0.0 mm 0.00 in0.0 mm 0.00 in0.0 mm
12:15 AM 95.0°F35.0°C 50.1°F10.1°C 22% 1.0 mph SW1.6 kmh SW 4.0 mph6.4 kmh 29.81 in1009.5 mb 0.00 in0.0 mm 0.00 in0.0 mm 0.00 in0.0 mm
12:20 AM 94.9°F34.9°C 50.0°F10.0°C 22% 2.0 mph SW3.2 kmh SW 3.0 mph4.8 kmh 29.81 in1009.5 mb 0.00 in0.0 mm 0.00 in0.0 mm 0.00 in0.0 mm
12:25 AM 94.8°F34.9°C 49.9°F9.9°C 22% 1.0 mph WSW1.6 kmh WSW 3.0 mph4.8 kmh 29.81 in1009.5 mb 0.00 in0.0 mm 0.00 in0.0 mm 0.00 in0.0 mm
12:30 AM 94.7°F34.8°C 49.8°F9.9°C 22% 1.0 mph WSW1.6 kmh WSW 3.0 mph4.8 kmh 29.81 in1009.5 mb 0.00 in0.0 mm 0.00 in0.0 mm 0.00 in0.0 mm
12:35 AM 94.5°F34.7°C 49.7°F9.8°C 22% 2.0 mph NW3.2 kmh NW 7.0 mph11.3 kmh 29.81 in1009.5 mb 0.00 in0.0 mm 0.00 in0.0 mm 0.00 in0.0 mm
12:40 AM 94.3°F34.6°C 50.7°F10.4°C 23% 3.0 mph NW4.8 kmh NW 4.0 mph6.4 kmh 29.81 in1009.5 mb 0.00 in0.0 mm 0.00 in0.0 mm 0.00 in0.0 mm
12:45 AM 94.2°F34.6°C 50.6°F10.3°C 23% 4.0 mph NW6.4 kmh NW 4.0 mph6.4 kmh 29.81 in1009.5 mb 0.00 in0.0 mm 0.00 in0.0 mm 0.00 in0.0 mm
12:50 AM 94.0°F34.4°C 50.5°F10.3°C 23% 3.0 mph NNW4.8 kmh NNW 5.0 mph8.0 kmh 29.81 in1009.5 mb 0.00 in0.0 mm 0.00 in0.0 mm 0.00 in0.0 mm
12:55 AM 93.8°F34.3°C 51.4°F10.8°C 24% 2.0 mph NNW3.2 kmh NNW 5.0 mph8.0 kmh 29.81 in1009.5 mb 0.00 in0.0 mm 0.00 in0.0 mm 0.00 in0.0 mm
01:00 AM 93.5°F34.2°C 51.2°F10.7°C 24% 6.0 mph N9.7 kmh N 6.0 mph9.7 kmh 29.82 in1009.8 mb 0.00 in0.0 mm 0.00 in0.0 mm 0.00 in0.0 mm
01:05 AM 93.4°F34.1°C 51.1°F10.6°C 24% 1.0 mph NNE1.6 kmh NNE 6.0 mph9.7 kmh 29.82 in1009.8 mb 0.00 in0.0 mm 0.00 in0.0 mm 0.00 in0.0 mm
01:10 AM 93.1°F33.9°C 50.9°F10.5°C 24% 1.0 mph NE1.6 kmh NE 4.0 mph6.4 kmh 29.82 in1009.8 mb 0.00 in0.0 mm 0.00 in0.0 mm 0.00 in0.0 mm
01:15 AM 92.8°F33.8°C 51.7°F10.9°C 25% 2.0 mph NE3.2 kmh NE 3.0 mph4.8 kmh 29.81 in1009.5 mb 0.00 in0.0 mm 0.00 in0.0 mm 0.00 in0.0 mm
01:20 AM 92.6°F33.7°C 51.5°F10.8°C 25% 2.0 mph NE3.2 kmh NE 5.0 mph8.0 kmh 29.81 in1009.5 mb 0.00 in0.0 mm 0.00 in0.0 mm 0.00 in0.0 mm
01:25 AM 92.2°F33.4°C 51.2°F10.7°C 25% 4.0 mph NE6.4 kmh NE 8.0 mph12.9 kmh 29.81 in1009.5 mb 0.00 in0.0 mm 0.00 in0.0 mm 0.00 in0.0 mm
01:30 AM 92.0°F33.3°C 51.0°F10.6°C 25% 7.0 mph NE11.3 kmh NE 8.0 mph12.9 kmh 29.81 in1009.5 mb 0.00 in0.0 mm 0.00 in0.0 mm 0.00 in0.0 mm
01:35 AM 92.0°F33.3°C 51.0°F10.6°C 25% 4.0 mph NE6.4 kmh NE 10.0 mph16.1 kmh 29.81 in1009.5 mb 0.00 in0.0 mm 0.00 in0.0 mm 0.00 in0.0 mm
01:40 AM 92.2°F33.4°C 51.2°F10.7°C 25% 9.0 mph N14.5 kmh N 13.0 mph20.9 kmh 29.81 in1009.5 mb 0.00 in0.0 mm 0.00 in0.0 mm 0.00 in0.0 mm
01:45 AM 92.3°F33.5°C 51.3°F10.7°C 25% 7.0 mph NNE11.3 kmh NNE 14.0 mph22.5 kmh 29.81 in1009.5 mb 0.00 in0.0 mm 0.00 in0.0 mm 0.00 in0.0 mm
01:50 AM 92.5°F33.6°C 51.5°F10.8°C 25% 11.0 mph NNE17.7 kmh NNE 12.0 mph19.3 kmh 29.81 in1009.5 mb 0.00 in0.0 mm 0.00 in0.0 mm 0.00 in0.0 mm
01:55 AM 92.8°F33.8°C 51.7°F10.9°C 25% 4.0 mph NE6.4 kmh NE 13.0 mph20.9 kmh 29.81 in1009.5 mb 0.00 in0.0 mm 0.00 in0.0 mm 0.00 in0.0 mm
02:00 AM 93.1°F33.9°C 50.9°F10.5°C 24% 4.0 mph 6.4 kmh 8.0 mph12.9 kmh 29.81 in1009.5 mb 0.00 in0.0 mm 0.00 in0.0 mm 0.00 in0.0 mm
02:05 AM 93.3°F34.1°C 51.0°F10.6°C 24% 5.0 mph NNE8.0 kmh NNE 7.0 mph11.3 kmh 29.81 in1009.5 mb 0.00 in0.0 mm 0.00 in0.0 mm 0.00 in0.0 mm
02:10 AM 93.5°F34.2°C 51.2°F10.7°C 24% 3.0 mph N4.8 kmh N 8.0 mph12.9 kmh 29.81 in1009.5 mb 0.00 in0.0 mm 0.00 in0.0 mm 0.00 in0.0 mm
02:15 AM 93.6°F34.2°C 51.3°F10.7°C 24% 3.0 mph NNE4.8 kmh NNE 9.0 mph14.5 kmh 29.81 in1009.5 mb 0.00 in0.0 mm 0.00 in0.0 mm 0.00 in0.0 mm
02:20 AM 93.7°F34.3°C 50.2°F10.1°C 23% 2.0 mph N3.2 kmh N 7.0 mph11.3 kmh 29.81 in1009.5 mb 0.00 in0.0 mm 0.00 in0.0 mm 0.00 in0.0 mm
02:25 AM 93.8°F34.3°C 50.3°F10.2°C 23% 4.0 mph SE6.4 kmh SE 6.0 mph9.7 kmh 29.82 in1009.8 mb 0.00 in0.0 mm 0.00 in0.0 mm 0.00 in0.0 mm
02:30 AM 93.4°F34.1°C 51.1°F10.6°C 24% 3.0 mph SE4.8 kmh SE 7.0 mph11.3 kmh 29.82 in1009.8 mb 0.00 in0.0 mm 0.00 in0.0 mm 0.00 in0.0 mm
02:35 AM 92.8°F33.8°C 51.7°F10.9°C 25% 8.0 mph ESE12.9 kmh ESE 8.0 mph12.9 kmh 29.81 in1009.5 mb 0.00 in0.0 mm 0.00 in0.0 mm 0.00 in0.0 mm
02:40 AM 92.2°F33.4°C 51.2°F10.7°C 25% 5.0 mph SE8.0 kmh SE 10.0 mph16.1 kmh 29.81 in1009.5 mb 0.00 in0.0 mm 0.00 in0.0 mm 0.00 in0.0 mm
02:45 AM 91.8°F33.2°C 50.9°F10.5°C 25% 3.0 mph SE4.8 kmh SE 9.0 mph14.5 kmh 29.82 in1009.8 mb 0.00 in0.0 mm 0.00 in0.0 mm 0.00 in0.0 mm
02:50 AM 91.5°F33.1°C 50.6°F10.3°C 25% 6.0 mph SE9.7 kmh SE 9.0 mph14.5 kmh 29.82 in1009.8 mb 0.00 in0.0 mm 0.00 in0.0 mm 0.00 in0.0 mm
02:55 AM 91.4°F33.0°C 50.5°F10.3°C 25% 5.0 mph SE8.0 kmh SE 13.0 mph20.9 kmh 29.82 in1009.8 mb 0.00 in0.0 mm 0.00 in0.0 mm 0.00 in0.0 mm
03:00 AM 91.4°F33.0°C 50.5°F10.3°C 25% 3.0 mph SE4.8 kmh SE 9.0 mph14.5 kmh 29.82 in1009.8 mb 0.00 in0.0 mm 0.00 in0.0 mm 0.00 in0.0 mm
03:05 AM 91.4°F33.0°C 50.5°F10.3°C 25% 3.0 mph SE4.8 kmh SE 8.0 mph12.9 kmh 29.82 in1009.8 mb 0.00 in0.0 mm 0.00 in0.0 mm 0.00 in0.0 mm
03:10 AM 91.3°F32.9°C 50.5°F10.3°C 25% 3.0 mph E4.8 kmh E 7.0 mph11.3 kmh 29.82 in1009.8 mb 0.00 in0.0 mm 0.00 in0.0 mm 0.00 in0.0 mm
03:15 AM 91.1°F32.8°C 50.3°F10.2°C 25% 3.0 mph SE4.8 kmh SE 8.0 mph12.9 kmh 29.82 in1009.8 mb 0.00 in0.0 mm 0.00 in0.0 mm 0.00 in0.0 mm
03:20 AM 91.1°F32.8°C 50.3°F10.2°C 25% 3.0 mph SE4.8 kmh SE 8.0 mph12.9 kmh 29.82 in1009.8 mb 0.00 in0.0 mm 0.00 in0.0 mm 0.00 in0.0 mm
03:25 AM 91.1°F32.8°C 50.3°F10.2°C 25% 3.0 mph SE4.8 kmh SE 9.0 mph14.5 kmh 29.82 in1009.8 mb 0.00 in0.0 mm 0.00 in0.0 mm 0.00 in0.0 mm
03:30 AM 91.3°F32.9°C 50.5°F10.3°C 25% 8.0 mph SE12.9 kmh SE 10.0 mph16.1 kmh 29.82 in1009.8 mb 0.00 in0.0 mm 0.00 in0.0 mm 0.00 in0.0 mm
03:35 AM 91.5°F33.1°C 50.6°F10.3°C 25% 3.0 mph ESE4.8 kmh ESE 10.0 mph16.1 kmh 29.82 in1009.8 mb 0.00 in0.0 mm 0.00 in0.0 mm 0.00 in0.0 mm
03:40 AM 91.8°F33.2°C 50.9°F10.5°C 25% 4.0 mph ESE6.4 kmh ESE 8.0 mph12.9 kmh 29.82 in1009.8 mb 0.00 in0.0 mm 0.00 in0.0 mm 0.00 in0.0 mm
03:45 AM 91.9°F33.3°C 51.0°F10.6°C 25% 3.0 mph SE4.8 kmh SE 5.0 mph8.0 kmh 29.82 in1009.8 mb 0.00 in0.0 mm 0.00 in0.0 mm 0.00 in0.0 mm
03:50 AM 91.9°F33.3°C 51.0°F10.6°C 25% 2.0 mph E3.2 kmh E 7.0 mph11.3 kmh 29.82 in1009.8 mb 0.00 in0.0 mm 0.00 in0.0 mm 0.00 in0.0 mm
03:55 AM 92.0°F33.3°C 51.0°F10.6°C 25% 2.0 mph ESE3.2 kmh ESE 7.0 mph11.3 kmh 29.82 in1009.8 mb 0.00 in0.0 mm 0.00 in0.0 mm 0.00 in0.0 mm
04:00 AM 92.1°F33.4°C 51.1°F10.6°C 25% 2.0 mph ESE3.2 kmh ESE 8.0 mph12.9 kmh 29.82 in1009.8 mb 0.00 in0.0 mm 0.00 in0.0 mm 0.00 in0.0 mm
04:05 AM 92.2°F33.4°C 50.1°F10.1°C 24% 3.0 mph E4.8 kmh E 6.0 mph9.7 kmh 29.82 in1009.8 mb 0.00 in0.0 mm 0.00 in0.0 mm 0.00 in0.0 mm
04:10 AM 92.2°F33.4°C 50.1°F10.1°C 24% 1.0 mph ESE1.6 kmh ESE 7.0 mph11.3 kmh 29.82 in1009.8 mb 0.00 in0.0 mm 0.00 in0.0 mm 0.00 in0.0 mm
04:15 AM 92.2°F33.4°C 50.1°F10.1°C 24% 2.0 mph SE3.2 kmh SE 5.0 mph8.0 kmh 29.82 in1009.8 mb 0.00 in0.0 mm 0.00 in0.0 mm 0.00 in0.0 mm
04:20 AM 92.1°F33.4°C 50.0°F10.0°C 24% 4.0 mph ESE6.4 kmh ESE 7.0 mph11.3 kmh 29.82 in1009.8 mb 0.00 in0.0 mm 0.00 in0.0 mm 0.00 in0.0 mm
04:25 AM 92.0°F33.3°C 49.9°F9.9°C 24% 1.0 mph SE1.6 kmh SE 7.0 mph11.3 kmh 29.83 in1010.2 mb 0.00 in0.0 mm 0.00 in0.0 mm 0.00 in0.0 mm
04:30 AM 91.9°F33.3°C 51.0°F10.6°C 25% 1.0 mph SE1.6 kmh SE 7.0 mph11.3 kmh 29.83 in1010.2 mb 0.00 in0.0 mm 0.00 in0.0 mm 0.00 in0.0 mm
04:35 AM 91.8°F33.2°C 50.9°F10.5°C 25% 2.0 mph SE3.2 kmh SE 5.0 mph8.0 kmh 29.83 in1010.2 mb 0.00 in0.0 mm 0.00 in0.0 mm 0.00 in0.0 mm
04:40 AM 91.6°F33.1°C 50.7°F10.4°C 25% 3.0 mph ESE4.8 kmh ESE 3.0 mph4.8 kmh 29.83 in1010.2 mb 0.00 in0.0 mm 0.00 in0.0 mm 0.00 in0.0 mm
04:45 AM 91.5°F33.1°C 50.6°F10.3°C 25% Calm Calm 3.0 mph4.8 kmh 29.83 in1010.2 mb 0.00 in0.0 mm 0.00 in0.0 mm 0.00 in0.0 mm
04:50 AM 91.2°F32.9°C 50.4°F10.2°C 25% 2.0 mph ESE3.2 kmh ESE 4.0 mph6.4 kmh 29.83 in1010.2 mb 0.00 in0.0 mm 0.00 in0.0 mm 0.00 in0.0 mm
04:55 AM 91.0°F32.8°C 50.2°F10.1°C 25% Calm Calm 4.0 mph6.4 kmh 29.83 in1010.2 mb 0.00 in0.0 mm 0.00 in0.0 mm 0.00 in0.0 mm
05:00 AM 90.9°F32.7°C 50.1°F10.1°C 25% Calm Calm -- 29.83 in1010.2 mb 0.00 in0.0 mm 0.00 in0.0 mm 0.00 in0.0 mm
05:05 AM 90.8°F32.7°C 50.0°F10.0°C 25% Calm Calm 1.0 mph1.6 kmh 29.83 in1010.2 mb 0.00 in0.0 mm 0.00 in0.0 mm 0.00 in0.0 mm
05:10 AM 90.5°F32.5°C 50.8°F10.4°C 26% Calm Calm 3.0 mph4.8 kmh 29.83 in1010.2 mb 0.00 in0.0 mm 0.00 in0.0 mm 0.00 in0.0 mm
05:15 AM 90.0°F32.2°C 50.4°F10.2°C 26% 1.0 mph SSE1.6 kmh SSE 6.0 mph9.7 kmh 29.83 in1010.2 mb 0.00 in0.0 mm 0.00 in0.0 mm 0.00 in0.0 mm
05:20 AM 89.7°F32.1°C 50.2°F10.1°C 26% 2.0 mph SE3.2 kmh SE 2.0 mph3.2 kmh 29.83 in1010.2 mb 0.00 in0.0 mm 0.00 in0.0 mm 0.00 in0.0 mm
05:25 AM 89.5°F31.9°C 50.0°F10.0°C 26% Calm Calm 3.0 mph4.8 kmh 29.84 in1010.5 mb 0.00 in0.0 mm 0.00 in0.0 mm 0.00 in0.0 mm
05:30 AM 89.3°F31.8°C 50.8°F10.4°C 27% Calm Calm 3.0 mph4.8 kmh 29.84 in1010.5 mb 0.00 in0.0 mm 0.00 in0.0 mm 0.00 in0.0 mm
05:35 AM 89.1°F31.7°C 50.7°F10.4°C 27% 1.0 mph SE1.6 kmh SE 3.0 mph4.8 kmh 29.84 in1010.5 mb 0.00 in0.0 mm 0.00 in0.0 mm 0.00 in0.0 mm
05:40 AM 88.9°F31.6°C 50.5°F10.3°C 27% 1.0 mph SE1.6 kmh SE 4.0 mph6.4 kmh 29.84 in1010.5 mb 0.00 in0.0 mm 0.00 in0.0 mm 0.00 in0.0 mm
05:45 AM 88.8°F31.6°C 50.4°F10.2°C 27% 1.0 mph SE1.6 kmh SE 5.0 mph8.0 kmh 29.84 in1010.5 mb 0.00 in0.0 mm 0.00 in0.0 mm 0.00 in0.0 mm
05:50 AM 88.8°F31.6°C 50.4°F10.2°C 27% 2.0 mph SE3.2 kmh SE 3.0 mph4.8 kmh 29.84 in1010.5 mb 0.00 in0.0 mm 0.00 in0.0 mm 0.00 in0.0 mm
05:55 AM 88.9°F31.6°C 50.5°F10.3°C 27% 1.0 mph SE1.6 kmh SE 4.0 mph6.4 kmh 29.85 in1010.8 mb 0.00 in0.0 mm 0.00 in0.0 mm 0.00 in0.0 mm
06:00 AM 89.0°F31.7°C 50.6°F10.3°C 27% Calm Calm 3.0 mph4.8 kmh 29.85 in1010.8 mb 0.00 in0.0 mm 0.00 in0.0 mm 0.00 in0.0 mm
06:05 AM 89.0°F31.7°C 50.6°F10.3°C 27% Calm Calm 2.0 mph3.2 kmh 29.85 in1010.8 mb 0.00 in0.0 mm 0.00 in0.0 mm 0.00 in0.0 mm
06:10 AM 89.0°F31.7°C 50.6°F10.3°C 27% Calm Calm 1.0 mph1.6 kmh 29.85 in1010.8 mb 0.00 in0.0 mm 0.00 in0.0 mm 0.00 in0.0 mm
06:15 AM 89.0°F31.7°C 50.6°F10.3°C 27% 2.0 mph SSE3.2 kmh SSE 3.0 mph4.8 kmh 29.86 in1011.2 mb 0.00 in0.0 mm 0.00 in0.0 mm 0.00 in0.0 mm
06:20 AM 88.9°F31.6°C 50.5°F10.3°C 27% 2.0 mph SSE3.2 kmh SSE 5.0 mph8.0 kmh 29.86 in1011.2 mb 0.00 in0.0 mm 0.00 in0.0 mm 0.00 in0.0 mm
06:25 AM 89.0°F31.7°C 50.6°F10.3°C 27% 2.0 mph SE3.2 kmh SE 3.0 mph4.8 kmh 29.87 in1011.5 mb 0.00 in0.0 mm 0.00 in0.0 mm 0.00 in0.0 mm
06:30 AM 89.1°F31.7°C 51.7°F10.9°C 28% 1.0 mph SSE1.6 kmh SSE 4.0 mph6.4 kmh 29.87 in1011.5 mb 0.00 in0.0 mm 0.00 in0.0 mm 0.00 in0.0 mm
06:35 AM 89.3°F31.8°C 51.8°F11.0°C 28% 1.0 mph SSE1.6 kmh SSE 4.0 mph6.4 kmh 29.87 in1011.5 mb 0.00 in0.0 mm 0.00 in0.0 mm 0.00 in0.0 mm
06:40 AM 89.6°F32.0°C 51.1°F10.6°C 27% 1.0 mph SE1.6 kmh SE 4.0 mph6.4 kmh 29.87 in1011.5 mb 0.00 in0.0 mm 0.00 in0.0 mm 0.00 in0.0 mm
06:45 AM 90.1°F32.3°C 51.5°F10.8°C 27% 2.0 mph SE3.2 kmh SE 6.0 mph9.7 kmh 29.88 in1011.9 mb 0.00 in0.0 mm 0.00 in0.0 mm 0.00 in0.0 mm
06:50 AM 90.7°F32.6°C 51.0°F10.6°C 26% 3.0 mph SE4.8 kmh SE 5.0 mph8.0 kmh 29.88 in1011.9 mb 0.00 in0.0 mm 0.00 in0.0 mm 0.00 in0.0 mm
06:55 AM 91.3°F32.9°C 51.5°F10.8°C 26% 2.0 mph SE3.2 kmh SE 7.0 mph11.3 kmh 29.88 in1011.9 mb 0.00 in0.0 mm 0.00 in0.0 mm 0.00 in0.0 mm
07:00 AM 92.0°F33.3°C 51.0°F10.6°C 25% 7.0 mph SE11.3 kmh SE 8.0 mph12.9 kmh 29.88 in1011.9 mb 0.00 in0.0 mm 0.00 in0.0 mm 0.00 in0.0 mm
07:05 AM 92.8°F33.8°C 50.6°F10.3°C 24% 2.0 mph SE3.2 kmh SE 8.0 mph12.9 kmh 29.88 in1011.9 mb 0.00 in0.0 mm 0.00 in0.0 mm 0.00 in0.0 mm
07:10 AM 93.4°F34.1°C 51.1°F10.6°C 24% 2.0 mph SE3.2 kmh SE 8.0 mph12.9 kmh 29.88 in1011.9 mb 0.00 in0.0 mm 0.00 in0.0 mm 0.00 in0.0 mm
07:15 AM 93.9°F34.4°C 51.5°F10.8°C 24% 1.0 mph SSE1.6 kmh SSE 7.0 mph11.3 kmh 29.88 in1011.9 mb 0.00 in0.0 mm 0.00 in0.0 mm 0.00 in0.0 mm
07:20 AM 94.3°F34.6°C 50.7°F10.4°C 23% 1.0 mph S1.6 kmh S 9.0 mph14.5 kmh 29.89 in1012.2 mb 0.00 in0.0 mm 0.00 in0.0 mm 0.00 in0.0 mm
07:25 AM 94.7°F34.8°C 51.0°F10.6°C 23% 4.0 mph SSE6.4 kmh SSE 10.0 mph16.1 kmh 29.89 in1012.2 mb 0.00 in0.0 mm 0.00 in0.0 mm 0.00 in0.0 mm
07:30 AM 94.9°F34.9°C 51.2°F10.7°C 23% 3.0 mph ESE4.8 kmh ESE 9.0 mph14.5 kmh 29.89 in1012.2 mb 0.00 in0.0 mm 0.00 in0.0 mm 0.00 in0.0 mm
07:35 AM 95.2°F35.1°C 51.5°F10.8°C 23% 3.0 mph SSE4.8 kmh SSE 9.0 mph14.5 kmh 29.89 in1012.2 mb 0.00 in0.0 mm 0.00 in0.0 mm 0.00 in0.0 mm
07:40 AM 95.5°F35.3°C 51.7°F10.9°C 23% 3.0 mph SE4.8 kmh SE 7.0 mph11.3 kmh 29.90 in1012.5 mb 0.00 in0.0 mm 0.00 in0.0 mm 0.00 in0.0 mm
07:45 AM 95.8°F35.4°C 52.0°F11.1°C 23% 3.0 mph SSE4.8 kmh SSE 9.0 mph14.5 kmh 29.90 in1012.5 mb 0.00 in0.0 mm 0.00 in0.0 mm 0.00 in0.0 mm
07:50 AM 96.1°F35.6°C 51.0°F10.6°C 22% 2.0 mph SE3.2 kmh SE 8.0 mph12.9 kmh 29.90 in1012.5 mb 0.00 in0.0 mm 0.00 in0.0 mm 0.00 in0.0 mm
07:55 AM 96.3°F35.7°C 51.2°F10.7°C 22% 2.0 mph SE3.2 kmh SE 6.0 mph9.7 kmh 29.90 in1012.5 mb 0.00 in0.0 mm 0.00 in0.0 mm 0.00 in0.0 mm
08:00 AM 96.6°F35.9°C 51.4°F10.8°C 22% 3.0 mph 4.8 kmh 7.0 mph11.3 kmh 29.90 in1012.5 mb 0.00 in0.0 mm 0.00 in0.0 mm 0.00 in0.0 mm
08:05 AM 96.8°F36.0°C 51.6°F10.9°C 22% 8.0 mph 12.9 kmh 8.0 mph12.9 kmh 29.90 in1012.5 mb 0.00 in0.0 mm 0.00 in0.0 mm 0.00 in0.0 mm
08:10 AM 97.1°F36.2°C 51.8°F11.0°C 22% 4.0 mph SSE6.4 kmh SSE 8.0 mph12.9 kmh 29.90 in1012.5 mb 0.00 in0.0 mm 0.00 in0.0 mm 0.00 in0.0 mm
08:15 AM 97.4°F36.3°C 52.1°F11.2°C 22% 3.0 mph S4.8 kmh S 9.0 mph14.5 kmh 29.90 in1012.5 mb 0.00 in0.0 mm 0.00 in0.0 mm 0.00 in0.0 mm
08:20 AM 97.7°F36.5°C 51.1°F10.6°C 21% 6.0 mph 9.7 kmh 9.0 mph14.5 kmh 29.90 in1012.5 mb 0.00 in0.0 mm 0.00 in0.0 mm 0.00 in0.0 mm
08:25 AM 97.9°F36.6°C 51.2°F10.7°C 21% 5.0 mph SE8.0 kmh SE 11.0 mph17.7 kmh 29.90 in1012.5 mb 0.00 in0.0 mm 0.00 in0.0 mm 0.00 in0.0 mm
08:30 AM 98.0°F36.7°C 51.3°F10.7°C 21% 4.0 mph SE6.4 kmh SE 9.0 mph14.5 kmh 29.90 in1012.5 mb 0.00 in0.0 mm 0.00 in0.0 mm 0.00 in0.0 mm
08:35 AM 98.2°F36.8°C 51.5°F10.8°C 21% 6.0 mph SSE9.7 kmh SSE 11.0 mph17.7 kmh 29.90 in1012.5 mb 0.00 in0.0 mm 0.00 in0.0 mm 0.00 in0.0 mm
08:40 AM 98.5°F36.9°C 51.7°F10.9°C 21% 2.0 mph SE3.2 kmh SE 8.0 mph12.9 kmh 29.91 in1012.9 mb 0.00 in0.0 mm 0.00 in0.0 mm 0.00 in0.0 mm
08:45 AM 98.8°F37.1°C 50.6°F10.3°C 20% 3.0 mph SE4.8 kmh SE 9.0 mph14.5 kmh 29.91 in1012.9 mb 0.00 in0.0 mm 0.00 in0.0 mm 0.00 in0.0 mm
08:50 AM 98.7°F37.1°C 50.6°F10.3°C 20% 5.0 mph S8.0 kmh S 11.0 mph17.7 kmh 29.91 in1012.9 mb 0.00 in0.0 mm 0.00 in0.0 mm 0.00 in0.0 mm
08:55 AM 98.9°F37.2°C 50.7°F10.4°C 20% 4.0 mph 6.4 kmh 9.0 mph14.5 kmh 29.91 in1012.9 mb 0.00 in0.0 mm 0.00 in0.0 mm 0.00 in0.0 mm
09:00 AM 99.3°F37.4°C 51.0°F10.6°C 20% 4.0 mph S6.4 kmh S 9.0 mph14.5 kmh 29.90 in1012.5 mb 0.00 in0.0 mm 0.00 in0.0 mm 0.00 in0.0 mm
09:05 AM 99.4°F37.4°C 51.1°F10.6°C 20% 4.0 mph S6.4 kmh S 10.0 mph16.1 kmh 29.90 in1012.5 mb 0.00 in0.0 mm 0.00 in0.0 mm 0.00 in0.0 mm
09:10 AM 99.4°F37.4°C 51.1°F10.6°C 20% 5.0 mph 8.0 kmh 10.0 mph16.1 kmh 29.90 in1012.5 mb 0.00 in0.0 mm 0.00 in0.0 mm 0.00 in0.0 mm
09:15 AM 99.5°F37.5°C 51.2°F10.7°C 20% 2.0 mph SSE3.2 kmh SSE 7.0 mph11.3 kmh 29.90 in1012.5 mb 0.00 in0.0 mm 0.00 in0.0 mm 0.00 in0.0 mm
09:20 AM 99.6°F37.6°C 51.3°F10.7°C 20% 3.0 mph SE4.8 kmh SE 10.0 mph16.1 kmh 29.90 in1012.5 mb 0.00 in0.0 mm 0.00 in0.0 mm 0.00 in0.0 mm
09:25 AM 99.6°F37.6°C 51.3°F10.7°C 20% 4.0 mph SSE6.4 kmh SSE 8.0 mph12.9 kmh 29.90 in1012.5 mb 0.00 in0.0 mm 0.00 in0.0 mm 0.00 in0.0 mm
09:30 AM 99.9°F37.7°C 50.1°F10.1°C 19% 5.0 mph 8.0 kmh 7.0 mph11.3 kmh 29.90 in1012.5 mb 0.00 in0.0 mm 0.00 in0.0 mm 0.00 in0.0 mm
09:35 AM 100.1°F37.8°C 50.3°F10.2°C 19% Calm Calm 8.0 mph12.9 kmh 29.90 in1012.5 mb 0.00 in0.0 mm 0.00 in0.0 mm 0.00 in0.0 mm
09:40 AM 100.5°F38.1°C 50.6°F10.3°C 19% 4.0 mph S6.4 kmh S 8.0 mph12.9 kmh 29.90 in1012.5 mb 0.00 in0.0 mm 0.00 in0.0 mm 0.00 in0.0 mm
09:45 AM 100.9°F38.3°C 49.5°F9.7°C 18% 4.0 mph SSE6.4 kmh SSE 9.0 mph14.5 kmh 29.90 in1012.5 mb 0.00 in0.0 mm 0.00 in0.0 mm 0.00 in0.0 mm
09:50 AM 101.1°F38.4°C 49.7°F9.8°C 18% Calm Calm 13.0 mph20.9 kmh 29.90 in1012.5 mb 0.00 in0.0 mm 0.00 in0.0 mm 0.00 in0.0 mm
09:55 AM 101.4°F38.6°C 49.9°F9.9°C 18% 5.0 mph S8.0 kmh S 10.0 mph16.1 kmh 29.91 in1012.9 mb 0.00 in0.0 mm 0.00 in0.0 mm 0.00 in0.0 mm
10:00 AM 101.6°F38.7°C 50.1°F10.1°C 18% 5.0 mph SE8.0 kmh SE 8.0 mph12.9 kmh 29.90 in1012.5 mb 0.00 in0.0 mm 0.00 in0.0 mm 0.00 in0.0 mm
10:05 AM 101.7°F38.7°C 50.1°F10.1°C 18% 2.0 mph SE3.2 kmh SE 8.0 mph12.9 kmh 29.90 in1012.5 mb 0.00 in0.0 mm 0.00 in0.0 mm 0.00 in0.0 mm
10:10 AM 101.9°F38.8°C 50.3°F10.2°C 18% 3.0 mph 4.8 kmh 7.0 mph11.3 kmh 29.90 in1012.5 mb 0.00 in0.0 mm 0.00 in0.0 mm 0.00 in0.0 mm
10:15 AM 102.0°F38.9°C 50.4°F10.2°C 18% 4.0 mph SSE6.4 kmh SSE 11.0 mph17.7 kmh 29.90 in1012.5 mb 0.00 in0.0 mm 0.00 in0.0 mm 0.00 in0.0 mm
10:20 AM 102.4°F39.1°C 50.7°F10.4°C 18% 5.0 mph SSE8.0 kmh SSE 8.0 mph12.9 kmh 29.90 in1012.5 mb 0.00 in0.0 mm 0.00 in0.0 mm 0.00 in0.0 mm
10:25 AM 102.6°F39.2°C 50.9°F10.5°C 18% 7.0 mph ESE11.3 kmh ESE 8.0 mph12.9 kmh 29.90 in1012.5 mb 0.00 in0.0 mm 0.00 in0.0 mm 0.00 in0.0 mm
10:30 AM 102.8°F39.3°C 51.0°F10.6°C 18% 7.0 mph SE11.3 kmh SE 10.0 mph16.1 kmh 29.90 in1012.5 mb 0.00 in0.0 mm 0.00 in0.0 mm 0.00 in0.0 mm
10:35 AM 102.8°F39.3°C 51.0°F10.6°C 18% 5.0 mph S8.0 kmh S 7.0 mph11.3 kmh 29.90 in1012.5 mb 0.00 in0.0 mm 0.00 in0.0 mm 0.00 in0.0 mm
10:40 AM 102.9°F39.4°C 51.1°F10.6°C 18% 3.0 mph SE4.8 kmh SE 8.0 mph12.9 kmh 29.90 in1012.5 mb 0.00 in0.0 mm 0.00 in0.0 mm 0.00 in0.0 mm
10:45 AM 103.2°F39.6°C 49.8°F9.9°C 17% 4.0 mph SSW6.4 kmh SSW 7.0 mph11.3 kmh 29.90 in1012.5 mb 0.00 in0.0 mm 0.00 in0.0 mm 0.00 in0.0 mm
10:50 AM 103.7°F39.8°C 50.2°F10.1°C 17% 2.0 mph SE3.2 kmh SE 10.0 mph16.1 kmh 29.90 in1012.5 mb 0.00 in0.0 mm 0.00 in0.0 mm 0.00 in0.0 mm
10:55 AM 103.6°F39.8°C 50.1°F10.1°C 17% 5.0 mph SE8.0 kmh SE 9.0 mph14.5 kmh 29.90 in1012.5 mb 0.00 in0.0 mm 0.00 in0.0 mm 0.00 in0.0 mm
11:00 AM 103.8°F39.9°C 50.3°F10.2°C 17% 3.0 mph 4.8 kmh 7.0 mph11.3 kmh 29.90 in1012.5 mb 0.00 in0.0 mm 0.00 in0.0 mm 0.00 in0.0 mm
11:05 AM 104.5°F40.3°C 50.8°F10.4°C 17% 3.0 mph S4.8 kmh S 8.0 mph12.9 kmh 29.89 in1012.2 mb 0.00 in0.0 mm 0.00 in0.0 mm 0.00 in0.0 mm
11:10 AM 105.1°F40.6°C 49.7°F9.8°C 16% Calm Calm 9.0 mph14.5 kmh 29.89 in1012.2 mb 0.00 in0.0 mm 0.00 in0.0 mm 0.00 in0.0 mm
11:15 AM 105.5°F40.8°C 50.0°F10.0°C 16% 1.0 mph SSE1.6 kmh SSE 4.0 mph6.4 kmh 29.89 in1012.2 mb 0.00 in0.0 mm 0.00 in0.0 mm 0.00 in0.0 mm
11:20 AM 105.9°F41.1°C 50.3°F10.2°C 16% 5.0 mph S8.0 kmh S 5.0 mph8.0 kmh 29.89 in1012.2 mb 0.00 in0.0 mm 0.00 in0.0 mm 0.00 in0.0 mm
11:25 AM 105.8°F41.0°C 50.2°F10.1°C 16% 6.0 mph S9.7 kmh S 10.0 mph16.1 kmh 29.89 in1012.2 mb 0.00 in0.0 mm 0.00 in0.0 mm 0.00 in0.0 mm
11:30 AM 105.4°F40.8°C 49.9°F9.9°C 16% 1.0 mph S1.6 kmh S 8.0 mph12.9 kmh 29.89 in1012.2 mb 0.00 in0.0 mm 0.00 in0.0 mm 0.00 in0.0 mm
11:35 AM 105.0°F40.6°C 49.6°F9.8°C 16% 1.0 mph SW1.6 kmh SW 7.0 mph11.3 kmh 29.89 in1012.2 mb 0.00 in0.0 mm 0.00 in0.0 mm 0.00 in0.0 mm
11:40 AM 104.5°F40.3°C 49.2°F9.6°C 16% 7.0 mph ESE11.3 kmh ESE 8.0 mph12.9 kmh 29.89 in1012.2 mb 0.00 in0.0 mm 0.00 in0.0 mm 0.00 in0.0 mm
11:45 AM 104.7°F40.4°C 49.4°F9.7°C 16% 3.0 mph SSE4.8 kmh SSE 7.0 mph11.3 kmh 29.89 in1012.2 mb 0.00 in0.0 mm 0.00 in0.0 mm 0.00 in0.0 mm
11:50 AM 104.8°F40.4°C 49.4°F9.7°C 16% 7.0 mph 11.3 kmh 7.0 mph11.3 kmh 29.88 in1011.9 mb 0.00 in0.0 mm 0.00 in0.0 mm 0.00 in0.0 mm
11:55 AM 105.5°F40.8°C 50.0°F10.0°C 16% 4.0 mph SSW6.4 kmh SSW 10.0 mph16.1 kmh 29.89 in1012.2 mb 0.00 in0.0 mm 0.00 in0.0 mm 0.00 in0.0 mm
12:00 PM 106.0°F41.1°C 50.4°F10.2°C 16% 3.0 mph 4.8 kmh 10.0 mph16.1 kmh 29.88 in1011.9 mb 0.00 in0.0 mm 0.00 in0.0 mm 0.00 in0.0 mm
12:05 PM 106.5°F41.4°C 49.1°F9.5°C 15% Calm Calm 7.0 mph11.3 kmh 29.88 in1011.9 mb 0.00 in0.0 mm 0.00 in0.0 mm 0.00 in0.0 mm
12:10 PM 106.6°F41.4°C 49.1°F9.5°C 15% Calm Calm 5.0 mph8.0 kmh 29.88 in1011.9 mb 0.00 in0.0 mm 0.00 in0.0 mm 0.00 in0.0 mm
12:15 PM 106.1°F41.2°C 48.7°F9.3°C 15% Calm Calm 6.0 mph9.7 kmh 29.87 in1011.5 mb 0.00 in0.0 mm 0.00 in0.0 mm 0.00 in0.0 mm
12:20 PM 106.2°F41.2°C 48.8°F9.3°C 15% 6.0 mph 9.7 kmh 7.0 mph11.3 kmh 29.87 in1011.5 mb 0.00 in0.0 mm 0.00 in0.0 mm 0.00 in0.0 mm
12:25 PM 105.8°F41.0°C 50.2°F10.1°C 16% 7.0 mph W11.3 kmh W 12.0 mph19.3 kmh 29.87 in1011.5 mb 0.00 in0.0 mm 0.00 in0.0 mm 0.00 in0.0 mm
12:30 PM 105.7°F40.9°C 50.2°F10.1°C 16% 3.0 mph 4.8 kmh 9.0 mph14.5 kmh 29.87 in1011.5 mb 0.00 in0.0 mm 0.00 in0.0 mm 0.00 in0.0 mm
12:35 PM 106.0°F41.1°C 48.7°F9.3°C 15% 1.0 mph WSW1.6 kmh WSW 9.0 mph14.5 kmh 29.87 in1011.5 mb 0.00 in0.0 mm 0.00 in0.0 mm 0.00 in0.0 mm
12:40 PM 106.0°F41.1°C 48.7°F9.3°C 15% 3.0 mph WSW4.8 kmh WSW 7.0 mph11.3 kmh 29.87 in1011.5 mb 0.00 in0.0 mm 0.00 in0.0 mm 0.00 in0.0 mm
12:45 PM 106.6°F41.4°C 49.1°F9.5°C 15% 3.0 mph SW4.8 kmh SW 10.0 mph16.1 kmh 29.86 in1011.2 mb 0.00 in0.0 mm 0.00 in0.0 mm 0.00 in0.0 mm
12:50 PM 107.7°F42.1°C 50.0°F10.0°C 15% 2.0 mph SW3.2 kmh SW 11.0 mph17.7 kmh 29.86 in1011.2 mb 0.00 in0.0 mm 0.00 in0.0 mm 0.00 in0.0 mm
12:55 PM 108.0°F42.2°C 50.2°F10.1°C 15% 1.0 mph SSW1.6 kmh SSW 7.0 mph11.3 kmh 29.86 in1011.2 mb 0.00 in0.0 mm 0.00 in0.0 mm 0.00 in0.0 mm
01:00 PM 108.4°F42.4°C 50.5°F10.3°C 15% 1.0 mph S1.6 kmh S 6.0 mph9.7 kmh 29.86 in1011.2 mb 0.00 in0.0 mm 0.00 in0.0 mm 0.00 in0.0 mm
01:05 PM 108.9°F42.7°C 50.9°F10.5°C 15% Calm Calm 8.0 mph12.9 kmh 29.86 in1011.2 mb 0.00 in0.0 mm 0.00 in0.0 mm 0.00 in0.0 mm
01:10 PM 109.4°F43.0°C 51.3°F10.7°C 15% 5.0 mph SW8.0 kmh SW 12.0 mph19.3 kmh 29.85 in1010.8 mb 0.00 in0.0 mm 0.00 in0.0 mm 0.00 in0.0 mm
01:15 PM 109.2°F42.9°C 51.2°F10.7°C 15% 5.0 mph 8.0 kmh 12.0 mph19.3 kmh 29.85 in1010.8 mb 0.00 in0.0 mm 0.00 in0.0 mm 0.00 in0.0 mm
01:20 PM 108.4°F42.4°C 50.5°F10.3°C 15% 6.0 mph SW9.7 kmh SW 12.0 mph19.3 kmh 29.85 in1010.8 mb 0.00 in0.0 mm 0.00 in0.0 mm 0.00 in0.0 mm
01:25 PM 108.2°F42.3°C 50.4°F10.2°C 15% 3.0 mph SW4.8 kmh SW 13.0 mph20.9 kmh 29.85 in1010.8 mb 0.00 in0.0 mm 0.00 in0.0 mm 0.00 in0.0 mm
01:30 PM 108.2°F42.3°C 50.4°F10.2°C 15% 13.0 mph 20.9 kmh 15.0 mph24.1 kmh 29.85 in1010.8 mb 0.00 in0.0 mm 0.00 in0.0 mm 0.00 in0.0 mm
01:35 PM 107.6°F42.0°C 49.9°F9.9°C 15% 7.0 mph WSW11.3 kmh WSW 15.0 mph24.1 kmh 29.85 in1010.8 mb 0.00 in0.0 mm 0.00 in0.0 mm 0.00 in0.0 mm
01:40 PM 107.3°F41.8°C 51.4°F10.8°C 16% 1.0 mph W1.6 kmh W 12.0 mph19.3 kmh 29.84 in1010.5 mb 0.00 in0.0 mm 0.00 in0.0 mm 0.00 in0.0 mm
01:45 PM 107.0°F41.7°C 51.2°F10.7°C 16% 2.0 mph NW3.2 kmh NW 13.0 mph20.9 kmh 29.84 in1010.5 mb 0.00 in0.0 mm 0.00 in0.0 mm 0.00 in0.0 mm
01:50 PM 107.2°F41.8°C 49.6°F9.8°C 15% 5.0 mph WNW8.0 kmh WNW 5.0 mph8.0 kmh 29.84 in1010.5 mb 0.00 in0.0 mm 0.00 in0.0 mm 0.00 in0.0 mm
01:55 PM 107.5°F41.9°C 51.6°F10.9°C 16% 5.0 mph SW8.0 kmh SW 12.0 mph19.3 kmh 29.84 in1010.5 mb 0.00 in0.0 mm 0.00 in0.0 mm 0.00 in0.0 mm
02:00 PM 107.3°F41.8°C 51.4°F10.8°C 16% 3.0 mph SW4.8 kmh SW 13.0 mph20.9 kmh 29.84 in1010.5 mb 0.00 in0.0 mm 0.00 in0.0 mm 0.00 in0.0 mm
02:05 PM 107.5°F41.9°C 49.8°F9.9°C 15% 8.0 mph 12.9 kmh 10.0 mph16.1 kmh 29.84 in1010.5 mb 0.00 in0.0 mm 0.00 in0.0 mm 0.00 in0.0 mm
02:10 PM 107.8°F42.1°C 50.1°F10.1°C 15% 6.0 mph SSW9.7 kmh SSW 11.0 mph17.7 kmh 29.83 in1010.2 mb 0.00 in0.0 mm 0.00 in0.0 mm 0.00 in0.0 mm
02:15 PM 108.4°F42.4°C 50.5°F10.3°C 15% 6.0 mph 9.7 kmh 9.0 mph14.5 kmh 29.83 in1010.2 mb 0.00 in0.0 mm 0.00 in0.0 mm 0.00 in0.0 mm
02:20 PM 108.3°F42.4°C 50.5°F10.3°C 15% 16.0 mph W25.7 kmh W 16.0 mph25.7 kmh 29.83 in1010.2 mb 0.00 in0.0 mm 0.00 in0.0 mm 0.00 in0.0 mm
02:25 PM 108.1°F42.3°C 50.3°F10.2°C 15% 10.0 mph 16.1 kmh 16.0 mph25.7 kmh 29.83 in1010.2 mb 0.00 in0.0 mm 0.00 in0.0 mm 0.00 in0.0 mm
02:30 PM 108.1°F42.3°C 50.3°F10.2°C 15% 9.0 mph 14.5 kmh 13.0 mph20.9 kmh 29.83 in1010.2 mb 0.00 in0.0 mm 0.00 in0.0 mm 0.00 in0.0 mm
02:35 PM 108.0°F42.2°C 50.2°F10.1°C 15% 8.0 mph WSW12.9 kmh WSW 10.0 mph16.1 kmh 29.83 in1010.2 mb 0.00 in0.0 mm 0.00 in0.0 mm 0.00 in0.0 mm
02:40 PM 107.7°F42.1°C 50.0°F10.0°C 15% 16.0 mph 25.7 kmh 14.0 mph22.5 kmh 29.82 in1009.8 mb 0.00 in0.0 mm 0.00 in0.0 mm 0.00 in0.0 mm
02:45 PM 107.6°F42.0°C 49.9°F9.9°C 15% 9.0 mph SW14.5 kmh SW 17.0 mph27.4 kmh 29.82 in1009.8 mb 0.00 in0.0 mm 0.00 in0.0 mm 0.00 in0.0 mm
02:50 PM 107.6°F42.0°C 49.9°F9.9°C 15% 11.0 mph 17.7 kmh 16.0 mph25.7 kmh 29.82 in1009.8 mb 0.00 in0.0 mm 0.00 in0.0 mm 0.00 in0.0 mm
02:55 PM 107.5°F41.9°C 49.8°F9.9°C 15% 6.0 mph SW9.7 kmh SW 15.0 mph24.1 kmh 29.82 in1009.8 mb 0.00 in0.0 mm 0.00 in0.0 mm 0.00 in0.0 mm
03:00 PM 107.9°F42.2°C 50.2°F10.1°C 15% 6.0 mph SSW9.7 kmh SSW 12.0 mph19.3 kmh 29.82 in1009.8 mb 0.00 in0.0 mm 0.00 in0.0 mm 0.00 in0.0 mm
03:05 PM 108.3°F42.4°C 50.5°F10.3°C 15% 6.0 mph 9.7 kmh 10.0 mph16.1 kmh 29.82 in1009.8 mb 0.00 in0.0 mm 0.00 in0.0 mm 0.00 in0.0 mm
03:10 PM 108.1°F42.3°C 50.3°F10.2°C 15% 5.0 mph W8.0 kmh W 15.0 mph24.1 kmh 29.82 in1009.8 mb 0.00 in0.0 mm 0.00 in0.0 mm 0.00 in0.0 mm
03:15 PM 107.9°F42.2°C 50.2°F10.1°C 15% 6.0 mph WSW9.7 kmh WSW 12.0 mph19.3 kmh 29.81 in1009.5 mb 0.00 in0.0 mm 0.00 in0.0 mm 0.00 in0.0 mm
03:20 PM 108.0°F42.2°C 50.2°F10.1°C 15% 9.0 mph WNW14.5 kmh WNW 15.0 mph24.1 kmh 29.81 in1009.5 mb 0.00 in0.0 mm 0.00 in0.0 mm 0.00 in0.0 mm
03:25 PM 108.0°F42.2°C 50.2°F10.1°C 15% 4.0 mph WNW6.4 kmh WNW 14.0 mph22.5 kmh 29.81 in1009.5 mb 0.00 in0.0 mm 0.00 in0.0 mm 0.00 in0.0 mm
03:30 PM 108.0°F42.2°C 52.0°F11.1°C 16% 8.0 mph 12.9 kmh 14.0 mph22.5 kmh 29.81 in1009.5 mb 0.00 in0.0 mm 0.00 in0.0 mm 0.00 in0.0 mm
03:35 PM 108.0°F42.2°C 52.0°F11.1°C 16% 8.0 mph 12.9 kmh 17.0 mph27.4 kmh 29.81 in1009.5 mb 0.00 in0.0 mm 0.00 in0.0 mm 0.00 in0.0 mm
03:40 PM 108.3°F42.4°C 52.2°F11.2°C 16% 12.0 mph SW19.3 kmh SW 14.0 mph22.5 kmh 29.80 in1009.1 mb 0.00 in0.0 mm 0.00 in0.0 mm 0.00 in0.0 mm
03:45 PM 108.4°F42.4°C 52.3°F11.3°C 16% 3.0 mph NW4.8 kmh NW 16.0 mph25.7 kmh 29.80 in1009.1 mb 0.00 in0.0 mm 0.00 in0.0 mm 0.00 in0.0 mm
03:50 PM 108.2°F42.3°C 52.1°F11.2°C 16% 7.0 mph NNW11.3 kmh NNW 12.0 mph19.3 kmh 29.80 in1009.1 mb 0.00 in0.0 mm 0.00 in0.0 mm 0.00 in0.0 mm
03:55 PM 107.9°F42.2°C 51.9°F11.1°C 16% 9.0 mph 14.5 kmh 15.0 mph24.1 kmh 29.80 in1009.1 mb 0.00 in0.0 mm 0.00 in0.0 mm 0.00 in0.0 mm
04:00 PM 107.7°F42.1°C 51.7°F10.9°C 16% 1.0 mph W1.6 kmh W 14.0 mph22.5 kmh 29.80 in1009.1 mb 0.00 in0.0 mm 0.00 in0.0 mm 0.00 in0.0 mm
04:05 PM 107.7°F42.1°C 51.7°F10.9°C 16% 3.0 mph NW4.8 kmh NW 11.0 mph17.7 kmh 29.79 in1008.8 mb 0.00 in0.0 mm 0.00 in0.0 mm 0.00 in0.0 mm
04:10 PM 107.9°F42.2°C 51.9°F11.1°C 16% 7.0 mph NW11.3 kmh NW 13.0 mph20.9 kmh 29.80 in1009.1 mb 0.00 in0.0 mm 0.00 in0.0 mm 0.00 in0.0 mm
04:15 PM 107.6°F42.0°C 51.7°F10.9°C 16% 6.0 mph NW9.7 kmh NW 16.0 mph25.7 kmh 29.79 in1008.8 mb 0.00 in0.0 mm 0.00 in0.0 mm 0.00 in0.0 mm
04:20 PM 107.6°F42.0°C 51.7°F10.9°C 16% 4.0 mph NW6.4 kmh NW 10.0 mph16.1 kmh 29.79 in1008.8 mb 0.00 in0.0 mm 0.00 in0.0 mm 0.00 in0.0 mm
04:25 PM 107.8°F42.1°C 51.8°F11.0°C 16% 9.0 mph 14.5 kmh 19.0 mph30.6 kmh 29.79 in1008.8 mb 0.00 in0.0 mm 0.00 in0.0 mm 0.00 in0.0 mm
04:30 PM 107.6°F42.0°C 51.7°F10.9°C 16% 3.0 mph NW4.8 kmh NW 19.0 mph30.6 kmh 29.79 in1008.8 mb 0.00 in0.0 mm 0.00 in0.0 mm 0.00 in0.0 mm
04:35 PM 107.4°F41.9°C 51.5°F10.8°C 16% 7.0 mph NW11.3 kmh NW 13.0 mph20.9 kmh 29.80 in1009.1 mb 0.00 in0.0 mm 0.00 in0.0 mm 0.00 in0.0 mm
04:40 PM 107.3°F41.8°C 49.7°F9.8°C 15% 2.0 mph NW3.2 kmh NW 13.0 mph20.9 kmh 29.80 in1009.1 mb 0.00 in0.0 mm 0.00 in0.0 mm 0.00 in0.0 mm
04:45 PM 107.4°F41.9°C 51.5°F10.8°C 16% 9.0 mph WNW14.5 kmh WNW 13.0 mph20.9 kmh 29.80 in1009.1 mb 0.00 in0.0 mm 0.00 in0.0 mm 0.00 in0.0 mm
04:50 PM 107.5°F41.9°C 51.6°F10.9°C 16% 14.0 mph WSW22.5 kmh WSW 16.0 mph25.7 kmh 29.80 in1009.1 mb 0.00 in0.0 mm 0.00 in0.0 mm 0.00 in0.0 mm
04:55 PM 107.3°F41.8°C 51.4°F10.8°C 16% 7.0 mph WSW11.3 kmh WSW 16.0 mph25.7 kmh 29.80 in1009.1 mb 0.00 in0.0 mm 0.00 in0.0 mm 0.00 in0.0 mm
05:00 PM 107.0°F41.7°C 49.4°F9.7°C 15% 9.0 mph 14.5 kmh 14.0 mph22.5 kmh 29.80 in1009.1 mb 0.00 in0.0 mm 0.00 in0.0 mm 0.00 in0.0 mm
05:05 PM 106.9°F41.6°C 49.4°F9.7°C 15% 5.0 mph NW8.0 kmh NW 11.0 mph17.7 kmh 29.80 in1009.1 mb 0.00 in0.0 mm 0.00 in0.0 mm 0.00 in0.0 mm
05:10 PM 107.0°F41.7°C 49.4°F9.7°C 15% 10.0 mph SW16.1 kmh SW 13.0 mph20.9 kmh 29.80 in1009.1 mb 0.00 in0.0 mm 0.00 in0.0 mm 0.00 in0.0 mm
05:15 PM 106.7°F41.5°C 49.2°F9.6°C 15% 5.0 mph SW8.0 kmh SW 15.0 mph24.1 kmh 29.80 in1009.1 mb 0.00 in0.0 mm 0.00 in0.0 mm 0.00 in0.0 mm
05:20 PM 106.1°F41.2°C 50.5°F10.3°C 16% 6.0 mph WNW9.7 kmh WNW 13.0 mph20.9 kmh 29.80 in1009.1 mb 0.00 in0.0 mm 0.00 in0.0 mm 0.00 in0.0 mm
05:25 PM 105.6°F40.9°C 50.1°F10.1°C 16% 5.0 mph W8.0 kmh W 14.0 mph22.5 kmh 29.79 in1008.8 mb 0.00 in0.0 mm 0.00 in0.0 mm 0.00 in0.0 mm
05:30 PM 105.3°F40.7°C 49.8°F9.9°C 16% 10.0 mph W16.1 kmh W 13.0 mph20.9 kmh 29.80 in1009.1 mb 0.00 in0.0 mm 0.00 in0.0 mm 0.00 in0.0 mm
05:35 PM 105.2°F40.7°C 49.8°F9.9°C 16% 4.0 mph W6.4 kmh W 13.0 mph20.9 kmh 29.80 in1009.1 mb 0.00 in0.0 mm 0.00 in0.0 mm 0.00 in0.0 mm
05:40 PM 105.0°F40.6°C 49.6°F9.8°C 16% 8.0 mph WSW12.9 kmh WSW 11.0 mph17.7 kmh 29.80 in1009.1 mb 0.00 in0.0 mm 0.00 in0.0 mm 0.00 in0.0 mm
05:45 PM 104.7°F40.4°C 49.4°F9.7°C 16% 3.0 mph NNW4.8 kmh NNW 10.0 mph16.1 kmh 29.80 in1009.1 mb 0.00 in0.0 mm 0.00 in0.0 mm 0.00 in0.0 mm
05:50 PM 104.3°F40.2°C 50.7°F10.4°C 17% 8.0 mph WNW12.9 kmh WNW 14.0 mph22.5 kmh 29.80 in1009.1 mb 0.00 in0.0 mm 0.00 in0.0 mm 0.00 in0.0 mm
05:55 PM 104.0°F40.0°C 50.4°F10.2°C 17% 5.0 mph 8.0 kmh 11.0 mph17.7 kmh 29.80 in1009.1 mb 0.00 in0.0 mm 0.00 in0.0 mm 0.00 in0.0 mm
06:00 PM 103.9°F39.9°C 50.4°F10.2°C 17% 6.0 mph W9.7 kmh W 12.0 mph19.3 kmh 29.80 in1009.1 mb 0.00 in0.0 mm 0.00 in0.0 mm 0.00 in0.0 mm
06:05 PM 104.0°F40.0°C 50.4°F10.2°C 17% 11.0 mph 17.7 kmh 14.0 mph22.5 kmh 29.80 in1009.1 mb 0.00 in0.0 mm 0.00 in0.0 mm 0.00 in0.0 mm
06:10 PM 104.3°F40.2°C 50.7°F10.4°C 17% 6.0 mph 9.7 kmh 13.0 mph20.9 kmh 29.80 in1009.1 mb 0.00 in0.0 mm 0.00 in0.0 mm 0.00 in0.0 mm
06:15 PM 104.6°F40.3°C 50.9°F10.5°C 17% 10.0 mph 16.1 kmh 14.0 mph22.5 kmh 29.80 in1009.1 mb 0.00 in0.0 mm 0.00 in0.0 mm 0.00 in0.0 mm
06:20 PM 104.7°F40.4°C 49.4°F9.7°C 16% 10.0 mph 16.1 kmh 12.0 mph19.3 kmh 29.80 in1009.1 mb 0.00 in0.0 mm 0.00 in0.0 mm 0.00 in0.0 mm
06:25 PM 104.6°F40.3°C 49.3°F9.6°C 16% 6.0 mph W9.7 kmh W 12.0 mph19.3 kmh 29.81 in1009.5 mb 0.00 in0.0 mm 0.00 in0.0 mm 0.00 in0.0 mm
06:30 PM 104.4°F40.2°C 49.1°F9.5°C 16% 5.0 mph 8.0 kmh 12.0 mph19.3 kmh 29.81 in1009.5 mb 0.00 in0.0 mm 0.00 in0.0 mm 0.00 in0.0 mm
06:35 PM 104.3°F40.2°C 50.7°F10.4°C 17% 7.0 mph W11.3 kmh W 11.0 mph17.7 kmh 29.81 in1009.5 mb 0.00 in0.0 mm 0.00 in0.0 mm 0.00 in0.0 mm
06:40 PM 104.3°F40.2°C 50.7°F10.4°C 17% 4.0 mph W6.4 kmh W 11.0 mph17.7 kmh 29.81 in1009.5 mb 0.00 in0.0 mm 0.00 in0.0 mm 0.00 in0.0 mm
06:45 PM 104.2°F40.1°C 50.6°F10.3°C 17% 7.0 mph WSW11.3 kmh WSW 9.0 mph14.5 kmh 29.81 in1009.5 mb 0.00 in0.0 mm 0.00 in0.0 mm 0.00 in0.0 mm
06:50 PM 103.9°F39.9°C 50.4°F10.2°C 17% 7.0 mph W11.3 kmh W 12.0 mph19.3 kmh 29.81 in1009.5 mb 0.00 in0.0 mm 0.00 in0.0 mm 0.00 in0.0 mm
06:55 PM 103.7°F39.8°C 50.2°F10.1°C 17% 8.0 mph W12.9 kmh W 13.0 mph20.9 kmh 29.81 in1009.5 mb 0.00 in0.0 mm 0.00 in0.0 mm 0.00 in0.0 mm
07:00 PM 103.5°F39.7°C 50.0°F10.0°C 17% 4.0 mph W6.4 kmh W 9.0 mph14.5 kmh 29.81 in1009.5 mb 0.00 in0.0 mm 0.00 in0.0 mm 0.00 in0.0 mm
07:05 PM 103.3°F39.6°C 49.9°F9.9°C 17% 7.0 mph 11.3 kmh 10.0 mph16.1 kmh 29.81 in1009.5 mb 0.00 in0.0 mm 0.00 in0.0 mm 0.00 in0.0 mm
07:10 PM 103.0°F39.4°C 49.6°F9.8°C 17% 4.0 mph WNW6.4 kmh WNW 13.0 mph20.9 kmh 29.81 in1009.5 mb 0.00 in0.0 mm 0.00 in0.0 mm 0.00 in0.0 mm
07:15 PM 102.7°F39.3°C 49.4°F9.7°C 17% 7.0 mph 11.3 kmh 10.0 mph16.1 kmh 29.82 in1009.8 mb 0.00 in0.0 mm 0.00 in0.0 mm 0.00 in0.0 mm
07:20 PM 102.3°F39.1°C 49.1°F9.5°C 17% 5.0 mph W8.0 kmh W 11.0 mph17.7 kmh 29.82 in1009.8 mb 0.00 in0.0 mm 0.00 in0.0 mm 0.00 in0.0 mm
07:25 PM 102.0°F38.9°C 48.8°F9.3°C 17% 4.0 mph WNW6.4 kmh WNW 8.0 mph12.9 kmh 29.82 in1009.8 mb 0.00 in0.0 mm 0.00 in0.0 mm 0.00 in0.0 mm
07:30 PM 101.6°F38.7°C 48.5°F9.2°C 17% 3.0 mph WNW4.8 kmh WNW 9.0 mph14.5 kmh 29.82 in1009.8 mb 0.00 in0.0 mm 0.00 in0.0 mm 0.00 in0.0 mm
07:35 PM 101.3°F38.5°C 48.3°F9.1°C 17% 4.0 mph WNW6.4 kmh WNW 8.0 mph12.9 kmh 29.82 in1009.8 mb 0.00 in0.0 mm 0.00 in0.0 mm 0.00 in0.0 mm
07:40 PM 101.0°F38.3°C 48.0°F8.9°C 17% 5.0 mph WNW8.0 kmh WNW 10.0 mph16.1 kmh 29.82 in1009.8 mb 0.00 in0.0 mm 0.00 in0.0 mm 0.00 in0.0 mm
07:45 PM 100.7°F38.2°C 47.8°F8.8°C 17% 9.0 mph W14.5 kmh W 10.0 mph16.1 kmh 29.83 in1010.2 mb 0.00 in0.0 mm 0.00 in0.0 mm 0.00 in0.0 mm
07:50 PM 100.5°F38.1°C 49.2°F9.6°C 18% 3.0 mph W4.8 kmh W 8.0 mph12.9 kmh 29.83 in1010.2 mb 0.00 in0.0 mm 0.00 in0.0 mm 0.00 in0.0 mm
07:55 PM 100.3°F37.9°C 49.0°F9.4°C 18% 2.0 mph W3.2 kmh W 6.0 mph9.7 kmh 29.83 in1010.2 mb 0.00 in0.0 mm 0.00 in0.0 mm 0.00 in0.0 mm
08:00 PM 100.2°F37.9°C 48.9°F9.4°C 18% 4.0 mph W6.4 kmh W 6.0 mph9.7 kmh 29.84 in1010.5 mb 0.00 in0.0 mm 0.00 in0.0 mm 0.00 in0.0 mm
08:05 PM 100.0°F37.8°C 48.8°F9.3°C 18% 2.0 mph WSW3.2 kmh WSW 5.0 mph8.0 kmh 29.84 in1010.5 mb 0.00 in0.0 mm 0.00 in0.0 mm 0.00 in0.0 mm
08:10 PM 99.9°F37.7°C 48.7°F9.3°C 18% 2.0 mph WSW3.2 kmh WSW 3.0 mph4.8 kmh 29.84 in1010.5 mb 0.00 in0.0 mm 0.00 in0.0 mm 0.00 in0.0 mm
08:15 PM 99.7°F37.6°C 48.5°F9.2°C 18% 1.0 mph W1.6 kmh W 4.0 mph6.4 kmh 29.84 in1010.5 mb 0.00 in0.0 mm 0.00 in0.0 mm 0.00 in0.0 mm
08:20 PM 99.5°F37.5°C 48.4°F9.1°C 18% Calm Calm 4.0 mph6.4 kmh 29.85 in1010.8 mb 0.00 in0.0 mm 0.00 in0.0 mm 0.00 in0.0 mm
08:25 PM 99.4°F37.4°C 48.3°F9.1°C 18% Calm Calm 3.0 mph4.8 kmh 29.85 in1010.8 mb 0.00 in0.0 mm 0.00 in0.0 mm 0.00 in0.0 mm
08:30 PM 99.3°F37.4°C 48.2°F9.0°C 18% Calm Calm 1.0 mph1.6 kmh 29.85 in1010.8 mb 0.00 in0.0 mm 0.00 in0.0 mm 0.00 in0.0 mm
08:35 PM 99.1°F37.3°C 49.5°F9.7°C 19% 2.0 mph N3.2 kmh N 3.0 mph4.8 kmh 29.86 in1011.2 mb 0.00 in0.0 mm 0.00 in0.0 mm 0.00 in0.0 mm
08:40 PM 98.8°F37.1°C 49.3°F9.6°C 19% 2.0 mph N3.2 kmh N 3.0 mph4.8 kmh 29.86 in1011.2 mb 0.00 in0.0 mm 0.00 in0.0 mm 0.00 in0.0 mm
08:45 PM 98.6°F37.0°C 49.1°F9.5°C 19% 2.0 mph NE3.2 kmh NE 4.0 mph6.4 kmh 29.86 in1011.2 mb 0.00 in0.0 mm 0.00 in0.0 mm 0.00 in0.0 mm
08:50 PM 98.4°F36.9°C 48.9°F9.4°C 19% 2.0 mph NE3.2 kmh NE 4.0 mph6.4 kmh 29.87 in1011.5 mb 0.00 in0.0 mm 0.00 in0.0 mm 0.00 in0.0 mm
08:55 PM 98.3°F36.8°C 50.2°F10.1°C 20% 2.0 mph NE3.2 kmh NE 4.0 mph6.4 kmh 29.87 in1011.5 mb 0.00 in0.0 mm 0.00 in0.0 mm 0.00 in0.0 mm
09:00 PM 98.2°F36.8°C 50.1°F10.1°C 20% 1.0 mph NE1.6 kmh NE 4.0 mph6.4 kmh 29.87 in1011.5 mb 0.00 in0.0 mm 0.00 in0.0 mm 0.00 in0.0 mm
09:05 PM 98.2°F36.8°C 50.1°F10.1°C 20% 2.0 mph NE3.2 kmh NE 2.0 mph3.2 kmh 29.87 in1011.5 mb 0.00 in0.0 mm 0.00 in0.0 mm 0.00 in0.0 mm
09:10 PM 98.2°F36.8°C 50.1°F10.1°C 20% Calm Calm 3.0 mph4.8 kmh 29.88 in1011.9 mb 0.00 in0.0 mm 0.00 in0.0 mm 0.00 in0.0 mm
09:15 PM 98.1°F36.7°C 50.1°F10.1°C 20% 2.0 mph NE3.2 kmh NE 4.0 mph6.4 kmh 29.88 in1011.9 mb 0.00 in0.0 mm 0.00 in0.0 mm 0.00 in0.0 mm
09:20 PM 98.0°F36.7°C 50.0°F10.0°C 20% Calm Calm 3.0 mph4.8 kmh 29.88 in1011.9 mb 0.00 in0.0 mm 0.00 in0.0 mm 0.00 in0.0 mm
09:25 PM 98.0°F36.7°C 50.0°F10.0°C 20% Calm Calm 2.0 mph3.2 kmh 29.89 in1012.2 mb 0.00 in0.0 mm 0.00 in0.0 mm 0.00 in0.0 mm
09:30 PM 97.9°F36.6°C 52.5°F11.4°C 22% 3.0 mph SSW4.8 kmh SSW 8.0 mph12.9 kmh 29.90 in1012.5 mb 0.00 in0.0 mm 0.00 in0.0 mm 0.00 in0.0 mm
09:35 PM 97.6°F36.4°C 64.4°F18.0°C 34% 4.0 mph SSE6.4 kmh SSE 6.0 mph9.7 kmh 29.90 in1012.5 mb 0.02 in0.5 mm 0.24 in6.1 mm 0.02 in0.5 mm
09:40 PM 95.2°F35.1°C 67.7°F19.8°C 41% 9.0 mph ESE14.5 kmh ESE 9.0 mph14.5 kmh 29.91 in1012.9 mb 0.05 in1.3 mm 0.36 in9.1 mm 0.05 in1.3 mm
09:45 PM 92.1°F33.4°C 65.6°F18.7°C 42% 11.0 mph ESE17.7 kmh ESE 13.0 mph20.9 kmh 29.92 in1013.2 mb 0.05 in1.3 mm 0.00 in0.0 mm 0.05 in1.3 mm
09:50 PM 89.5°F31.9°C 64.6°F18.1°C 44% 9.0 mph ESE14.5 kmh ESE 15.0 mph24.1 kmh 29.92 in1013.2 mb 0.05 in1.3 mm 0.00 in0.0 mm 0.05 in1.3 mm
09:55 PM 88.4°F31.3°C 62.3°F16.8°C 42% 8.0 mph E12.9 kmh E 13.0 mph20.9 kmh 29.92 in1013.2 mb 0.05 in1.3 mm 0.00 in0.0 mm 0.05 in1.3 mm
10:00 PM 88.1°F31.2°C 63.4°F17.4°C 44% 9.0 mph E14.5 kmh E 11.0 mph17.7 kmh 29.92 in1013.2 mb 0.05 in1.3 mm 0.00 in0.0 mm 0.05 in1.3 mm
10:05 PM 87.9°F31.1°C 62.5°F16.9°C 43% 4.0 mph ESE6.4 kmh ESE 14.0 mph22.5 kmh 29.92 in1013.2 mb 0.05 in1.3 mm 0.00 in0.0 mm 0.05 in1.3 mm
10:10 PM 88.2°F31.2°C 60.0°F15.6°C 39% 9.0 mph ESE14.5 kmh ESE 11.0 mph17.7 kmh 29.93 in1013.5 mb 0.05 in1.3 mm 0.00 in0.0 mm 0.05 in1.3 mm
10:15 PM 89.1°F31.7°C 60.1°F15.6°C 38% 10.0 mph ESE16.1 kmh ESE 10.0 mph16.1 kmh 29.93 in1013.5 mb 0.05 in1.3 mm 0.00 in0.0 mm 0.05 in1.3 mm
10:20 PM 89.9°F32.2°C 59.3°F15.2°C 36% 5.0 mph ESE8.0 kmh ESE 12.0 mph19.3 kmh 29.93 in1013.5 mb 0.05 in1.3 mm 0.00 in0.0 mm 0.05 in1.3 mm
10:25 PM 90.4°F32.4°C 59.7°F15.4°C 36% 7.0 mph SE11.3 kmh SE 11.0 mph17.7 kmh 29.93 in1013.5 mb 0.05 in1.3 mm 0.00 in0.0 mm 0.05 in1.3 mm
10:30 PM 90.8°F32.7°C 58.5°F14.7°C 34% 5.0 mph E8.0 kmh E 13.0 mph20.9 kmh 29.93 in1013.5 mb 0.05 in1.3 mm 0.00 in0.0 mm 0.05 in1.3 mm
10:35 PM 91.1°F32.8°C 58.7°F14.8°C 34% 4.0 mph ESE6.4 kmh ESE 11.0 mph17.7 kmh 29.93 in1013.5 mb 0.03 in0.8 mm 0.00 in0.0 mm 0.05 in1.3 mm
10:40 PM 90.7°F32.6°C 60.8°F16.0°C 37% 10.0 mph ESE16.1 kmh ESE 21.0 mph33.8 kmh 29.94 in1013.9 mb 0.01 in0.3 mm 0.00 in0.0 mm 0.06 in1.5 mm
10:45 PM 89.5°F31.9°C 61.2°F16.2°C 39% 13.0 mph E20.9 kmh E 16.0 mph25.7 kmh 29.94 in1013.9 mb 0.01 in0.3 mm 0.00 in0.0 mm 0.06 in1.5 mm
10:50 PM 88.7°F31.5°C 59.7°F15.4°C 38% 5.0 mph ESE8.0 kmh ESE 13.0 mph20.9 kmh 29.94 in1013.9 mb 0.01 in0.3 mm 0.00 in0.0 mm 0.06 in1.5 mm
10:55 PM 88.6°F31.4°C 61.1°F16.2°C 40% 3.0 mph SE4.8 kmh SE 8.0 mph12.9 kmh 29.93 in1013.5 mb 0.01 in0.3 mm 0.00 in0.0 mm 0.06 in1.5 mm
11:00 PM 88.7°F31.5°C 59.0°F15.0°C 37% 2.0 mph SE3.2 kmh SE 13.0 mph20.9 kmh 29.93 in1013.5 mb 0.01 in0.3 mm 0.00 in0.0 mm 0.06 in1.5 mm
11:05 PM 89.1°F31.7°C 57.8°F14.3°C 35% 9.0 mph ESE14.5 kmh ESE 15.0 mph24.1 kmh 29.93 in1013.5 mb 0.01 in0.3 mm 0.00 in0.0 mm 0.06 in1.5 mm
11:10 PM 89.5°F31.9°C 57.3°F14.1°C 34% 5.0 mph SE8.0 kmh SE 11.0 mph17.7 kmh 29.93 in1013.5 mb 0.01 in0.3 mm 0.00 in0.0 mm 0.06 in1.5 mm
11:15 PM 89.6°F32.0°C 57.4°F14.1°C 34% 6.0 mph SE9.7 kmh SE 8.0 mph12.9 kmh 29.93 in1013.5 mb 0.01 in0.3 mm 0.00 in0.0 mm 0.06 in1.5 mm
11:20 PM 89.6°F32.0°C 57.4°F14.1°C 34% 3.0 mph SSE4.8 kmh SSE 9.0 mph14.5 kmh 29.93 in1013.5 mb 0.01 in0.3 mm 0.00 in0.0 mm 0.06 in1.5 mm
11:25 PM 89.6°F32.0°C 57.4°F14.1°C 34% 3.0 mph SSE4.8 kmh SSE 6.0 mph9.7 kmh 29.93 in1013.5 mb 0.01 in0.3 mm 0.00 in0.0 mm 0.06 in1.5 mm
11:30 PM 89.6°F32.0°C 58.2°F14.6°C 35% 4.0 mph S6.4 kmh S 8.0 mph12.9 kmh 29.93 in1013.5 mb 0.01 in0.3 mm 0.00 in0.0 mm 0.06 in1.5 mm
11:35 PM 89.5°F31.9°C 57.3°F14.1°C 34% 5.0 mph SSW8.0 kmh SSW 6.0 mph9.7 kmh 29.93 in1013.5 mb 0.01 in0.3 mm 0.00 in0.0 mm 0.06 in1.5 mm
11:40 PM 89.5°F31.9°C 57.3°F14.1°C 34% 6.0 mph S9.7 kmh S 12.0 mph19.3 kmh 29.93 in1013.5 mb 0.00 in0.0 mm 0.00 in0.0 mm 0.06 in1.5 mm
11:45 PM 89.5°F31.9°C 58.1°F14.5°C 35% 3.0 mph SSE4.8 kmh SSE 11.0 mph17.7 kmh 29.93 in1013.5 mb 0.00 in0.0 mm 0.00 in0.0 mm 0.06 in1.5 mm
11:50 PM 89.5°F31.9°C 58.1°F14.5°C 35% 3.0 mph SE4.8 kmh SE 9.0 mph14.5 kmh 29.93 in1013.5 mb 0.00 in0.0 mm 0.00 in0.0 mm 0.06 in1.5 mm
11:55 PM 89.5°F31.9°C 57.3°F14.1°C 34% 4.0 mph SE6.4 kmh SE 7.0 mph11.3 kmh 29.93 in1013.5 mb 0.00 in0.0 mm 0.00 in0.0 mm 0.06 in1.5 mm